createdAt,value
2023-04-20T16:50:19.198Z,46.37
2023-04-20T16:52:49.460Z,45.41
2023-04-20T16:55:15.885Z,44.96
2023-04-20T16:57:42.320Z,42.38
2023-04-20T17:00:10.627Z,43.66
2023-04-20T17:02:37.547Z,43.20
2023-04-20T17:05:05.292Z,42.49
2023-04-20T17:07:31.720Z,41.81
2023-04-20T17:09:58.196Z,40.98
2023-04-20T17:12:24.860Z,40.40
2023-04-20T17:14:51.472Z,41.54
2023-04-20T17:17:18.124Z,41.38
2023-04-20T17:19:45.053Z,40.19
2023-04-20T17:22:11.479Z,40.41
2023-04-20T17:24:38.114Z,40.09
2023-04-20T17:27:04.836Z,40.78
2023-04-20T17:29:34.801Z,41.19
2023-04-20T17:32:01.764Z,41.37
2023-04-20T17:34:28.162Z,42.06
2023-04-20T17:36:54.590Z,41.84
2023-04-20T17:39:21.556Z,41.49
2023-04-20T17:41:47.903Z,41.88
2023-04-20T17:44:14.245Z,42.74
2023-04-20T17:46:40.860Z,42.61
2023-04-20T17:49:07.230Z,42.58
2023-04-20T17:51:33.723Z,42.75
2023-04-20T17:54:00.130Z,42.77
2023-04-20T17:56:27.095Z,43.33
2023-04-20T17:58:54.765Z,42.80
2023-04-20T18:01:21.228Z,42.85
2023-04-20T18:03:48.518Z,43.04
2023-04-20T18:06:15.005Z,43.45
2023-04-20T18:08:41.490Z,43.96
2023-04-20T18:11:07.875Z,45.68
2023-04-20T18:13:34.293Z,44.77
2023-04-20T18:16:01.588Z,45.66
2023-04-20T18:18:28.009Z,46.26
2023-04-20T18:20:54.475Z,46.77
2023-04-20T18:23:20.972Z,46.50
2023-04-20T18:25:47.371Z,47.52
2023-04-20T18:28:13.786Z,46.99
2023-04-20T18:30:40.493Z,47.54
2023-04-20T18:33:06.988Z,47.62
2023-04-20T18:35:33.972Z,48.08
2023-04-20T18:38:00.903Z,48.38
2023-04-20T18:40:27.287Z,48.23
2023-04-20T18:42:53.782Z,49.62
2023-04-20T18:45:21.659Z,50.76
2023-04-20T18:47:48.186Z,55.04
2023-04-20T18:50:15.249Z,58.16
2023-04-20T18:52:42.162Z,60.43
2023-04-20T18:55:09.330Z,61.75
2023-04-20T18:57:35.826Z,62.97
2023-04-20T19:00:04.588Z,63.84
2023-04-20T19:02:31.346Z,63.38
2023-04-20T19:04:57.823Z,65.80
2023-04-20T19:07:24.334Z,64.69
2023-04-20T19:09:50.722Z,65.34
2023-04-20T19:12:19.276Z,64.80
2023-04-20T19:14:49.124Z,64.56
2023-04-20T19:17:15.878Z,65.18
2023-04-20T19:19:42.284Z,64.28
2023-04-20T19:22:08.747Z,63.35
2023-04-20T19:24:37.136Z,62.14
2023-04-20T19:27:03.527Z,62.20
2023-04-20T19:29:30.000Z,60.70
2023-04-20T19:31:56.419Z,61.57
2023-04-20T19:34:23.989Z,63.17
2023-04-20T19:36:50.480Z,62.66
2023-04-20T19:39:16.930Z,62.79
2023-04-20T19:41:43.641Z,63.73
2023-04-20T19:44:11.942Z,65.35
2023-04-20T19:46:38.668Z,66.60
2023-04-20T19:49:05.184Z,67.83
2023-04-20T19:51:31.810Z,68.84
2023-04-20T19:53:59.988Z,69.41
2023-04-20T19:56:26.856Z,70.42
2023-04-20T19:58:53.294Z,70.56
2023-04-20T20:01:19.724Z,71.11
2023-04-20T20:03:46.302Z,71.27
2023-04-20T20:06:12.882Z,71.89
2023-04-20T20:08:39.244Z,71.01
2023-04-20T20:11:05.666Z,71.62
2023-04-20T20:13:32.091Z,71.91
2023-04-20T20:15:59.062Z,72.24
2023-04-20T20:18:25.861Z,72.46
2023-04-20T20:20:52.409Z,72.46
2023-04-20T20:23:18.839Z,72.84
2023-04-20T20:25:45.204Z,73.06
2023-04-20T20:28:11.649Z,72.89
2023-04-20T20:30:38.151Z,72.88
2023-04-20T20:33:04.602Z,72.52
2023-04-20T20:35:31.618Z,73.08
2023-04-20T20:37:59.188Z,73.28
2023-04-20T20:40:26.427Z,73.51
2023-04-20T20:42:52.960Z,73.05
2023-04-20T20:45:19.563Z,73.24
2023-04-20T20:47:46.447Z,73.25
2023-04-20T20:50:14.287Z,73.58
2023-04-20T20:52:41.120Z,73.46
2023-04-20T20:55:08.929Z,73.66
2023-04-20T20:57:35.421Z,73.16
2023-04-20T21:00:02.103Z,73.21
2023-04-20T21:02:28.655Z,73.09
2023-04-20T21:04:55.166Z,72.69
2023-04-20T21:07:21.665Z,72.74
2023-04-20T21:09:48.125Z,72.62
2023-04-20T21:12:14.578Z,72.50
2023-04-20T21:14:40.933Z,72.42
2023-04-20T21:17:07.368Z,72.30
2023-04-20T21:19:33.824Z,72.42
2023-04-20T21:22:00.234Z,72.14
2023-04-20T21:24:26.793Z,72.24
2023-04-20T21:26:53.159Z,72.70
2023-04-20T21:29:19.832Z,72.62
2023-04-20T21:31:46.607Z,71.93
2023-04-20T21:34:13.090Z,72.78
2023-04-20T21:36:39.459Z,71.74
2023-04-20T21:39:05.926Z,71.92
2023-04-20T21:41:32.310Z,72.20
2023-04-20T21:43:58.715Z,72.96
2023-04-20T21:46:25.190Z,73.59
2023-04-20T21:48:51.596Z,74.11
2023-04-20T21:51:18.622Z,74.54
2023-04-20T21:53:45.520Z,74.56
2023-04-20T21:56:11.932Z,74.79
2023-04-20T21:58:38.297Z,74.54
2023-04-20T22:01:04.710Z,73.72
2023-04-20T22:03:33.667Z,74.01
2023-04-20T22:06:00.810Z,74.32
2023-04-20T22:08:27.364Z,73.66
2023-04-20T22:10:53.865Z,73.57
2023-04-20T22:13:20.274Z,74.30
2023-04-20T22:15:47.382Z,73.95
2023-04-20T22:18:13.995Z,74.06
2023-04-20T22:20:40.360Z,74.70
2023-04-20T22:23:06.732Z,74.11
2023-04-20T22:25:33.099Z,74.13
2023-04-20T22:27:59.469Z,74.48
2023-04-20T22:30:25.853Z,74.72
2023-04-20T22:32:52.476Z,74.96
2023-04-20T22:35:18.972Z,74.46
2023-04-20T22:37:45.574Z,74.72
2023-04-20T22:40:13.234Z,74.60
2023-04-20T22:42:40.140Z,75.09
2023-04-20T22:45:07.200Z,74.66
2023-04-20T22:47:33.623Z,74.49
2023-04-20T22:50:00.268Z,74.45
2023-04-20T22:52:26.706Z,74.67
2023-04-20T22:54:53.087Z,74.35
2023-04-20T22:57:19.513Z,74.82
2023-04-20T22:59:45.948Z,74.38
2023-04-20T23:02:12.483Z,74.36
2023-04-20T23:04:39.242Z,74.42
2023-04-20T23:07:06.246Z,74.22
2023-04-20T23:09:32.614Z,74.37
2023-04-20T23:11:59.030Z,73.58
2023-04-20T23:14:25.889Z,73.87
2023-04-20T23:16:52.394Z,73.98
2023-04-20T23:19:18.981Z,73.52
2023-04-20T23:21:45.503Z,73.35
2023-04-20T23:24:11.909Z,73.26
2023-04-20T23:26:38.312Z,73.91
2023-04-20T23:29:04.696Z,73.79
2023-04-20T23:31:31.150Z,74.00
2023-04-20T23:33:57.552Z,73.50
2023-04-20T23:36:23.964Z,73.64
2023-04-20T23:38:50.653Z,73.89
2023-04-20T23:41:17.092Z,73.49
2023-04-20T23:43:43.572Z,73.55
2023-04-20T23:46:10.362Z,73.66
2023-04-20T23:48:36.789Z,73.59
2023-04-20T23:51:03.327Z,73.50
2023-04-20T23:53:29.752Z,73.48
2023-04-20T23:55:56.288Z,73.63
2023-04-20T23:58:26.898Z,73.83
